createdAt,value
2023-09-18T00:00:34.236Z,17.75
2023-09-18T00:03:04.134Z,17.75
2023-09-18T00:05:31.952Z,17.75
2023-09-18T00:07:58.592Z,17.73
2023-09-18T00:10:27.442Z,17.72
2023-09-18T00:12:53.964Z,17.70
2023-09-18T00:15:20.613Z,17.71
2023-09-18T00:17:47.180Z,17.69
2023-09-18T00:20:14.650Z,17.67
2023-09-18T00:22:42.774Z,17.64
2023-09-18T00:25:09.362Z,17.65
2023-09-18T00:27:37.171Z,17.64
2023-09-18T00:30:07.626Z,17.60
2023-09-18T00:32:34.186Z,17.58
2023-09-18T00:35:00.782Z,17.65
2023-09-18T00:37:27.412Z,17.65
2023-09-18T00:39:53.921Z,17.67
2023-09-18T00:42:20.446Z,17.69
2023-09-18T00:44:46.966Z,17.71
2023-09-18T00:47:15.534Z,17.74
2023-09-18T00:49:46.276Z,17.72
2023-09-18T00:52:13.740Z,17.69
2023-09-18T00:54:42.235Z,17.68
2023-09-18T00:57:10.317Z,17.64
2023-09-18T00:59:38.442Z,17.59
2023-09-18T01:02:05.043Z,17.58
2023-09-18T01:04:33.732Z,17.54
2023-09-18T01:07:04.459Z,17.52
2023-09-18T01:09:34.978Z,17.50
2023-09-18T01:12:19.029Z,17.50
2023-09-18T01:15:11.343Z,17.46
2023-09-18T01:17:39.552Z,17.44
2023-09-18T01:20:07.043Z,17.41
2023-09-18T01:22:33.707Z,17.40
2023-09-18T01:25:00.260Z,17.39
2023-09-18T01:27:26.790Z,17.38
2023-09-18T01:29:54.594Z,17.36
2023-09-18T01:32:27.122Z,17.35
2023-09-18T01:34:57.118Z,17.31
2023-09-18T01:37:30.021Z,17.32
2023-09-18T01:40:00.321Z,17.31
2023-09-18T01:42:28.100Z,17.29
2023-09-18T01:44:56.126Z,17.28
2023-09-18T01:47:27.923Z,17.35
2023-09-18T01:49:54.690Z,17.34
2023-09-18T01:52:21.274Z,17.36
2023-09-18T01:54:48.218Z,17.37
2023-09-18T01:57:14.940Z,17.35
2023-09-18T01:59:42.504Z,17.32
2023-09-18T02:02:11.045Z,17.29
2023-09-18T02:05:03.461Z,17.26
2023-09-18T02:07:26.514Z,17.24
2023-09-18T02:09:53.875Z,17.23
2023-09-18T02:12:21.068Z,17.23
2023-09-18T02:14:47.617Z,17.20
2023-09-18T02:17:14.137Z,17.19
2023-09-18T02:19:40.695Z,17.14
2023-09-18T02:22:07.728Z,17.13
2023-09-18T02:24:35.148Z,17.08
2023-09-18T02:27:05.183Z,17.06
2023-09-18T02:29:31.800Z,17.04
2023-09-18T02:31:58.427Z,17.03
2023-09-18T02:34:25.118Z,17.03
2023-09-18T02:36:51.789Z,16.97
2023-09-18T02:39:18.291Z,16.95
2023-09-18T02:41:44.785Z,16.93
2023-09-18T02:44:11.479Z,16.91
2023-09-18T02:46:39.370Z,16.90
2023-09-18T02:49:05.820Z,16.88
2023-09-18T02:51:35.388Z,16.85
2023-09-18T02:54:01.910Z,16.83
2023-09-18T02:56:28.492Z,16.82
2023-09-18T02:58:55.360Z,16.81
2023-09-18T03:01:22.308Z,16.80
2023-09-18T03:03:48.898Z,16.80
2023-09-18T03:06:15.538Z,16.80
2023-09-18T03:08:44.124Z,16.78
2023-09-18T03:11:14.958Z,16.76
2023-09-18T03:13:49.284Z,16.79
2023-09-18T03:16:16.011Z,16.82
2023-09-18T03:18:42.601Z,16.84
2023-09-18T03:21:09.352Z,16.79
2023-09-18T03:23:36.096Z,16.75
2023-09-18T03:26:02.747Z,16.69
2023-09-18T03:28:29.368Z,16.63
2023-09-18T03:30:55.980Z,16.58
2023-09-18T03:33:22.747Z,16.54
2023-09-18T03:35:50.926Z,16.56
2023-09-18T03:38:17.832Z,16.53
2023-09-18T03:40:44.741Z,16.55
2023-09-18T03:43:13.246Z,16.51
2023-09-18T03:45:42.787Z,16.49
2023-09-18T03:48:10.493Z,16.46
2023-09-18T03:50:37.247Z,16.43
2023-09-18T03:53:04.080Z,16.42
2023-09-18T03:55:31.183Z,16.39
2023-09-18T03:57:58.107Z,16.34
2023-09-18T04:00:24.681Z,16.33
2023-09-18T04:02:51.268Z,16.29
2023-09-18T04:05:17.843Z,16.29
2023-09-18T04:07:47.752Z,16.30
2023-09-18T04:10:23.880Z,16.29
2023-09-18T04:12:54.462Z,16.28
2023-09-18T04:15:22.505Z,16.27
2023-09-18T04:17:49.595Z,16.24
2023-09-18T04:20:16.681Z,16.20
2023-09-18T04:22:45.798Z,16.18
2023-09-18T04:25:13.408Z,16.16
2023-09-18T04:27:39.895Z,16.11
2023-09-18T04:30:07.702Z,16.09
2023-09-18T04:32:34.295Z,16.08
2023-09-18T04:35:00.911Z,16.08
2023-09-18T04:37:27.624Z,16.09
2023-09-18T04:39:54.125Z,16.10
2023-09-18T04:42:20.918Z,16.13
2023-09-18T04:44:47.462Z,16.17
2023-09-18T04:47:14.057Z,16.18
2023-09-18T04:49:40.640Z,16.18
2023-09-18T04:52:07.323Z,16.18
2023-09-18T04:54:34.038Z,16.18
2023-09-18T04:57:00.604Z,16.18
2023-09-18T04:59:27.199Z,16.17
2023-09-18T05:01:53.793Z,16.15
2023-09-18T05:04:20.822Z,16.16
2023-09-18T05:06:47.317Z,16.14
2023-09-18T05:09:13.806Z,16.12
2023-09-18T05:11:43.017Z,16.14
2023-09-18T05:14:09.783Z,16.15
2023-09-18T05:16:36.691Z,16.16
2023-09-18T05:19:03.824Z,16.19
2023-09-18T05:21:31.095Z,16.21
2023-09-18T05:23:57.791Z,16.24
2023-09-18T05:26:25.824Z,16.28
2023-09-18T05:28:52.911Z,16.29
2023-09-18T05:31:20.100Z,16.34
2023-09-18T05:33:46.632Z,16.37
2023-09-18T05:36:15.209Z,16.38
2023-09-18T05:38:41.815Z,16.36
2023-09-18T05:41:08.508Z,16.39
2023-09-18T05:43:36.421Z,16.40
2023-09-18T05:46:03.477Z,16.43
2023-09-18T05:48:30.543Z,16.45
2023-09-18T05:50:57.220Z,16.47
2023-09-18T05:53:23.752Z,16.51
2023-09-18T05:55:50.221Z,16.52
2023-09-18T05:58:18.735Z,16.52
2023-09-18T06:00:45.268Z,16.55
2023-09-18T06:03:13.585Z,16.57
2023-09-18T06:05:40.365Z,16.61
2023-09-18T06:08:07.235Z,16.62
2023-09-18T06:10:33.998Z,16.67
2023-09-18T06:13:05.333Z,16.72
2023-09-18T06:15:32.569Z,16.79
2023-09-18T06:17:59.204Z,16.85
2023-09-18T06:20:25.829Z,16.94
2023-09-18T06:22:52.424Z,17.04
2023-09-18T06:25:19.040Z,17.16
2023-09-18T06:27:45.482Z,17.24
2023-09-18T06:30:12.293Z,17.36
2023-09-18T06:32:39.105Z,17.46
2023-09-18T06:35:06.307Z,17.53
2023-09-18T06:37:32.811Z,17.59
2023-09-18T06:39:59.327Z,17.63
2023-09-18T06:42:25.884Z,17.66
2023-09-18T06:44:52.394Z,17.72
2023-09-18T06:47:19.164Z,17.76
2023-09-18T06:49:45.628Z,17.80
2023-09-18T06:52:14.089Z,17.80
2023-09-18T06:54:40.569Z,17.81
2023-09-18T06:57:07.012Z,17.84
2023-09-18T06:59:37.973Z,17.80
2023-09-18T07:02:04.970Z,17.80
2023-09-18T07:04:31.487Z,17.79
2023-09-18T07:06:58.507Z,17.80
2023-09-18T07:09:27.121Z,17.79
2023-09-18T07:11:53.804Z,17.79
2023-09-18T07:14:20.532Z,17.84
2023-09-18T07:16:47.419Z,17.86
2023-09-18T07:19:17.920Z,17.85
2023-09-18T07:21:45.071Z,17.89
2023-09-18T07:24:17.279Z,17.93
2023-09-18T07:26:49.243Z,18.01
2023-09-18T07:29:16.548Z,18.08
2023-09-18T07:31:44.055Z,18.15
2023-09-18T07:34:14.134Z,18.23
2023-09-18T07:36:41.414Z,18.33
2023-09-18T07:39:07.993Z,18.41
2023-09-18T07:41:34.663Z,18.52
2023-09-18T07:44:01.336Z,18.65
2023-09-18T07:46:27.886Z,18.77
2023-09-18T07:48:54.618Z,18.87
2023-09-18T07:51:21.429Z,18.98
2023-09-18T07:53:48.347Z,19.05
2023-09-18T07:56:15.007Z,19.14
2023-09-18T07:58:41.559Z,19.22
2023-09-18T08:01:09.946Z,19.31
2023-09-18T08:03:36.708Z,19.45
2023-09-18T08:06:05.537Z,19.57
2023-09-18T08:08:34.151Z,19.71
2023-09-18T08:11:11.774Z,19.86
2023-09-18T08:13:38.682Z,19.94
2023-09-18T08:16:08.577Z,20.09
2023-09-18T08:18:35.972Z,20.19
2023-09-18T08:21:02.873Z,20.31
2023-09-18T08:23:29.447Z,20.41
2023-09-18T08:25:59.445Z,20.48
2023-09-18T08:28:25.960Z,20.59
2023-09-18T08:30:52.410Z,20.78
2023-09-18T08:33:19.043Z,20.95
2023-09-18T08:35:47.803Z,21.10
2023-09-18T08:38:15.514Z,21.25
2023-09-18T08:40:43.642Z,21.37
2023-09-18T08:43:12.035Z,21.48
2023-09-18T08:45:52.254Z,21.50
2023-09-18T08:48:19.333Z,21.53
2023-09-18T08:50:46.977Z,21.61
2023-09-18T08:53:13.489Z,21.76
2023-09-18T08:55:40.046Z,21.90
2023-09-18T08:58:09.005Z,22.00
2023-09-18T09:00:38.592Z,22.10
2023-09-18T09:03:06.083Z,22.19
2023-09-18T09:05:33.909Z,22.33
2023-09-18T09:08:01.200Z,22.41
2023-09-18T09:10:27.926Z,22.45
2023-09-18T09:12:59.387Z,22.48
2023-09-18T09:15:49.127Z,22.53
2023-09-18T09:18:18.908Z,22.56
2023-09-18T09:20:58.790Z,22.59
2023-09-18T09:23:27.427Z,22.63
2023-09-18T09:25:54.296Z,22.70
2023-09-18T09:28:33.316Z,22.85
2023-09-18T09:31:03.896Z,23.00
2023-09-18T09:33:31.471Z,23.12
2023-09-18T09:35:58.630Z,23.20
2023-09-18T09:38:33.419Z,23.29
2023-09-18T09:41:00.818Z,23.36
2023-09-18T09:43:29.223Z,23.46
2023-09-18T09:46:00.287Z,23.53
2023-09-18T09:48:27.280Z,23.58
2023-09-18T09:51:01.133Z,23.61
2023-09-18T09:53:46.076Z,23.70
2023-09-18T09:56:12.655Z,23.80
2023-09-18T09:58:42.227Z,23.90
2023-09-18T10:01:18.931Z,24.02
2023-09-18T10:03:46.670Z,24.08
2023-09-18T10:06:14.763Z,24.14
2023-09-18T10:08:41.959Z,24.23
2023-09-18T10:11:12.114Z,24.33
2023-09-18T10:14:05.690Z,24.44
2023-09-18T10:16:34.017Z,24.53
2023-09-18T10:19:22.484Z,24.68
2023-09-18T10:22:38.518Z,24.95
2023-09-18T10:25:18.507Z,25.08
2023-09-18T10:27:50.361Z,25.14
2023-09-18T10:30:19.392Z,25.19
2023-09-18T10:32:47.268Z,25.25
2023-09-18T10:35:13.873Z,25.21
2023-09-18T10:37:44.462Z,25.17
2023-09-18T10:40:11.044Z,25.20
2023-09-18T10:42:43.058Z,25.20
2023-09-18T10:45:12.697Z,25.23
2023-09-18T10:47:41.482Z,25.24
2023-09-18T10:50:10.576Z,25.22
2023-09-18T10:52:44.539Z,25.21
2023-09-18T10:55:15.030Z,25.25
2023-09-18T10:57:55.742Z,25.28
2023-09-18T11:00:26.235Z,25.33
2023-09-18T11:02:52.888Z,25.32
2023-09-18T11:05:33.661Z,25.29
2023-09-18T11:08:27.120Z,25.19
2023-09-18T11:11:00.277Z,25.08
2023-09-18T11:13:30.934Z,25.07
2023-09-18T11:16:22.873Z,24.95
2023-09-18T11:18:55.310Z,24.89
2023-09-18T11:21:30.655Z,24.87
2023-09-18T11:23:59.814Z,24.83
2023-09-18T11:26:33.639Z,24.80
2023-09-18T11:29:11.671Z,24.78
2023-09-18T11:31:57.568Z,24.80
2023-09-18T11:34:29.567Z,24.79
2023-09-18T11:36:57.144Z,24.84
2023-09-18T11:39:53.295Z,24.93
2023-09-18T11:42:27.501Z,25.10
2023-09-18T11:44:54.454Z,25.22
2023-09-18T11:47:25.730Z,25.29
2023-09-18T11:49:56.254Z,25.30
2023-09-18T11:52:23.912Z,25.33
2023-09-18T11:54:51.952Z,25.35
2023-09-18T11:57:20.770Z,25.39
2023-09-18T11:59:48.116Z,25.38
2023-09-18T12:02:29.433Z,25.30
2023-09-18T12:04:56.894Z,25.11
2023-09-18T12:07:24.267Z,25.00
2023-09-18T12:09:50.801Z,24.91
2023-09-18T12:12:18.879Z,24.88
2023-09-18T12:14:45.880Z,24.73
2023-09-18T12:17:16.717Z,24.65
2023-09-18T12:19:56.090Z,24.48
2023-09-18T12:22:31.739Z,24.32
2023-09-18T12:25:13.894Z,24.29
2023-09-18T12:27:43.034Z,24.32
2023-09-18T12:30:10.949Z,24.24
2023-09-18T12:32:38.745Z,24.21
2023-09-18T12:35:08.075Z,24.20
2023-09-18T12:37:41.647Z,24.18
2023-09-18T12:40:34.415Z,24.09
2023-09-18T12:43:02.182Z,24.05
2023-09-18T12:45:30.734Z,23.92
2023-09-18T12:47:58.757Z,23.83
2023-09-18T12:50:26.832Z,23.70
2023-09-18T12:52:53.557Z,23.61
2023-09-18T12:55:28.183Z,23.48
2023-09-18T12:57:55.076Z,23.39
2023-09-18T13:00:24.023Z,23.35
2023-09-18T13:02:56.069Z,23.24
2023-09-18T13:05:27.609Z,23.11
2023-09-18T13:07:55.580Z,23.01
2023-09-18T13:10:24.904Z,22.99
2023-09-18T13:12:56.660Z,22.94
2023-09-18T13:15:29.051Z,22.91
2023-09-18T13:17:56.864Z,22.79
2023-09-18T13:20:27.546Z,22.72
2023-09-18T13:22:54.966Z,22.65
2023-09-18T13:25:25.822Z,22.57
2023-09-18T13:27:55.485Z,22.51
2023-09-18T13:30:23.351Z,22.44
2023-09-18T13:32:51.375Z,22.33
2023-09-18T13:35:19.641Z,22.27
2023-09-18T13:37:46.968Z,22.19
2023-09-18T13:40:13.638Z,22.09
2023-09-18T13:42:40.256Z,21.91
2023-09-18T13:45:07.770Z,21.78
2023-09-18T13:47:36.549Z,21.62
2023-09-18T13:50:05.664Z,21.39
2023-09-18T13:52:34.691Z,21.28
2023-09-18T13:55:01.607Z,21.05
2023-09-18T13:57:28.466Z,21.00
2023-09-18T13:59:55.128Z,20.84
2023-09-18T14:02:21.789Z,20.66
2023-09-18T14:04:49.858Z,20.52
2023-09-18T14:07:16.374Z,20.27
2023-09-18T14:09:43.027Z,20.13
2023-09-18T14:12:09.772Z,19.78
2023-09-18T14:14:36.593Z,19.52
2023-09-18T14:17:04.997Z,19.21
2023-09-18T14:19:31.947Z,18.98
2023-09-18T14:21:58.813Z,18.77
2023-09-18T14:24:26.788Z,18.55
2023-09-18T14:26:53.798Z,18.41
2023-09-18T14:29:20.638Z,18.16
2023-09-18T14:31:47.538Z,18.03
2023-09-18T14:34:14.854Z,17.98
2023-09-18T14:36:41.590Z,17.97
2023-09-18T14:39:11.654Z,17.78
2023-09-18T14:41:38.711Z,17.77
2023-09-18T14:44:06.837Z,17.73
2023-09-18T14:46:36.256Z,17.72
2023-09-18T14:49:02.901Z,17.67
2023-09-18T14:51:29.693Z,17.70
2023-09-18T14:53:57.046Z,17.72
2023-09-18T14:56:23.852Z,17.75
2023-09-18T14:58:52.926Z,17.75
2023-09-18T15:01:20.170Z,17.76
2023-09-18T15:03:46.839Z,17.77
2023-09-18T15:06:13.647Z,17.78
2023-09-18T15:08:40.172Z,17.81
2023-09-18T15:11:07.234Z,17.78
2023-09-18T15:13:35.726Z,17.81
2023-09-18T15:16:03.580Z,17.83
2023-09-18T15:18:30.280Z,17.80
2023-09-18T15:20:57.463Z,17.80
2023-09-18T15:23:26.887Z,17.77
2023-09-18T15:25:54.765Z,17.73
2023-09-18T15:28:21.527Z,17.70
2023-09-18T15:30:48.694Z,17.69
2023-09-18T15:33:18.425Z,17.68
2023-09-18T15:35:45.979Z,17.68
2023-09-18T15:38:12.774Z,17.69
2023-09-18T15:40:39.590Z,17.70
2023-09-18T15:43:06.343Z,17.70
2023-09-18T15:45:34.380Z,17.70
2023-09-18T15:48:01.031Z,17.66
2023-09-18T15:50:27.569Z,17.66
2023-09-18T15:52:54.029Z,17.59
2023-09-18T15:55:21.733Z,17.56
2023-09-18T15:57:49.399Z,17.53
2023-09-18T16:00:18.626Z,17.42
2023-09-18T16:02:45.816Z,17.37
2023-09-18T16:05:12.995Z,17.37
2023-09-18T16:07:42.785Z,17.33
2023-09-18T16:10:10.083Z,17.28
2023-09-18T16:12:36.987Z,17.29
2023-09-18T16:15:05.683Z,17.27
2023-09-18T16:17:32.870Z,17.28
2023-09-18T16:19:59.593Z,17.23
2023-09-18T16:22:27.961Z,17.16
2023-09-18T16:24:55.261Z,17.12
2023-09-18T16:27:21.772Z,17.09
2023-09-18T16:29:48.349Z,17.08
2023-09-18T16:32:14.894Z,17.09
2023-09-18T16:34:42.553Z,17.03
2023-09-18T16:37:09.167Z,16.98
2023-09-18T16:39:35.686Z,16.98
2023-09-18T16:42:03.015Z,16.91
2023-09-18T16:44:29.939Z,16.86
2023-09-18T16:46:56.668Z,16.85
2023-09-18T16:49:23.524Z,16.81
2023-09-18T16:51:53.129Z,16.77
2023-09-18T16:54:22.482Z,16.73
2023-09-18T16:56:49.634Z,16.72
2023-09-18T16:59:16.501Z,16.71
2023-09-18T17:01:42.981Z,16.73
2023-09-18T17:04:12.816Z,16.74
2023-09-18T17:06:39.780Z,16.71
2023-09-18T17:09:08.718Z,16.72
2023-09-18T17:11:35.839Z,16.65
2023-09-18T17:14:02.442Z,16.61
2023-09-18T17:16:28.993Z,16.56
2023-09-18T17:18:58.516Z,16.52
2023-09-18T17:21:26.296Z,16.49
2023-09-18T17:23:53.567Z,16.50
2023-09-18T17:26:20.173Z,16.48
2023-09-18T17:28:46.717Z,16.39
2023-09-18T17:31:13.301Z,16.35
2023-09-18T17:33:40.170Z,16.32
2023-09-18T17:36:12.776Z,16.33
2023-09-18T17:38:39.463Z,16.32
2023-09-18T17:41:05.993Z,16.34
2023-09-18T17:43:35.337Z,16.35
2023-09-18T17:46:02.250Z,16.31
2023-09-18T17:48:30.098Z,16.33
2023-09-18T17:50:59.014Z,16.33
2023-09-18T17:53:25.649Z,16.33
2023-09-18T17:55:52.238Z,16.28
2023-09-18T17:58:18.829Z,16.28
2023-09-18T18:00:49.243Z,16.26
2023-09-18T18:03:18.577Z,16.24
2023-09-18T18:05:45.877Z,16.23
2023-09-18T18:08:12.834Z,16.22
2023-09-18T18:10:46.816Z,16.21
2023-09-18T18:13:13.766Z,16.20
2023-09-18T18:15:40.897Z,16.20
2023-09-18T18:18:13.768Z,16.20
2023-09-18T18:20:44.180Z,16.18
2023-09-18T18:23:11.172Z,16.17
2023-09-18T18:25:38.108Z,16.14
2023-09-18T18:28:05.081Z,16.13
2023-09-18T18:30:31.738Z,16.11
2023-09-18T18:32:58.390Z,16.05
2023-09-18T18:35:25.719Z,15.98
2023-09-18T18:37:53.399Z,15.94
2023-09-18T18:40:23.223Z,15.92
2023-09-18T18:42:52.131Z,15.90
2023-09-18T18:45:19.812Z,15.89
2023-09-18T18:47:47.743Z,15.88
2023-09-18T18:50:14.511Z,15.84
2023-09-18T18:52:41.486Z,15.85
2023-09-18T18:55:09.006Z,15.84
2023-09-18T18:57:36.305Z,15.81
2023-09-18T19:00:12.490Z,15.81
2023-09-18T19:02:45.617Z,15.79
2023-09-18T19:05:13.906Z,15.77
2023-09-18T19:07:40.401Z,15.79
2023-09-18T19:10:07.501Z,15.77
2023-09-18T19:15:07.488Z,15.70
2023-09-18T19:17:34.204Z,15.66
2023-09-18T19:20:00.715Z,15.62
2023-09-18T19:22:27.166Z,15.58
2023-09-18T19:24:53.712Z,15.56
2023-09-18T19:27:20.257Z,15.54
2023-09-18T19:29:47.355Z,15.53
2023-09-18T19:32:14.220Z,15.54
2023-09-18T19:34:40.897Z,15.51
2023-09-18T19:37:09.481Z,15.51
2023-09-18T19:39:37.194Z,15.49
2023-09-18T19:42:04.583Z,15.50
2023-09-18T19:44:31.182Z,15.49
2023-09-18T19:46:59.112Z,15.48
2023-09-18T19:49:27.003Z,15.47
2023-09-18T19:51:53.450Z,15.47
2023-09-18T19:54:24.114Z,15.44
2023-09-18T19:56:52.147Z,15.45
2023-09-18T19:59:19.231Z,15.45
2023-09-18T20:01:46.891Z,15.43
2023-09-18T20:04:13.633Z,15.43
2023-09-18T20:06:40.348Z,15.44
2023-09-18T20:09:07.001Z,15.44
2023-09-18T20:11:33.733Z,15.45
2023-09-18T20:14:00.215Z,15.44
2023-09-18T20:16:26.671Z,15.43
2023-09-18T20:18:53.709Z,15.42
2023-09-18T20:21:22.099Z,15.41
2023-09-18T20:23:48.642Z,15.44
2023-09-18T20:26:15.208Z,15.44
2023-09-18T20:28:42.126Z,15.45
2023-09-18T20:31:09.778Z,15.43
2023-09-18T20:33:36.641Z,15.42
2023-09-18T20:36:04.032Z,15.43
2023-09-18T20:38:32.314Z,15.42
2023-09-18T20:41:00.849Z,15.42
2023-09-18T20:43:27.796Z,15.41
2023-09-18T20:45:55.266Z,15.42
2023-09-18T20:48:21.859Z,15.42
2023-09-18T20:50:51.810Z,15.42
2023-09-18T20:53:19.643Z,15.39
2023-09-18T20:55:47.711Z,15.37
2023-09-18T20:58:14.554Z,15.37
2023-09-18T21:00:40.988Z,15.36
2023-09-18T21:03:08.008Z,15.36
2023-09-18T21:05:34.594Z,15.35
2023-09-18T21:08:01.150Z,15.33
2023-09-18T21:12:57.656Z,15.32
2023-09-18T21:15:25.025Z,15.28
2023-09-18T21:17:51.636Z,15.27
2023-09-18T21:20:18.166Z,15.24
2023-09-18T21:22:46.240Z,15.22
2023-09-18T21:25:12.728Z,15.20
2023-09-18T21:27:39.304Z,15.19
2023-09-18T21:30:06.628Z,15.18
2023-09-18T21:32:33.640Z,15.17
2023-09-18T21:35:00.252Z,15.15
2023-09-18T21:37:26.768Z,15.16
2023-09-18T21:39:53.584Z,15.15
2023-09-18T21:42:20.035Z,15.13
2023-09-18T21:44:46.774Z,15.13
2023-09-18T21:47:14.180Z,15.10
2023-09-18T21:49:44.643Z,15.08
2023-09-18T21:52:15.117Z,15.07
2023-09-18T21:54:41.681Z,15.04
2023-09-18T21:57:08.270Z,15.01
2023-09-18T21:59:34.815Z,15.01
2023-09-18T22:02:01.349Z,15.00
2023-09-18T22:04:27.831Z,14.98
2023-09-18T22:06:54.578Z,14.98
2023-09-18T22:09:21.268Z,14.98
2023-09-18T22:11:47.932Z,14.98
2023-09-18T22:14:15.801Z,14.98
2023-09-18T22:16:42.394Z,14.96
2023-09-18T22:19:09.047Z,14.94
2023-09-18T22:21:35.689Z,14.94
2023-09-18T22:24:02.430Z,14.93
2023-09-18T22:26:29.266Z,14.92
2023-09-18T22:28:56.157Z,14.89
2023-09-18T22:31:22.866Z,14.86
2023-09-18T22:33:51.762Z,14.87
2023-09-18T22:36:27.814Z,14.84
2023-09-18T22:39:12.578Z,14.80
2023-09-18T22:41:40.072Z,14.80
2023-09-18T22:44:44.389Z,14.79
2023-09-18T22:47:48.775Z,14.77
2023-09-18T22:50:52.904Z,14.76
2023-09-18T22:53:20.155Z,14.75
2023-09-18T22:55:47.863Z,14.74
2023-09-18T22:58:14.766Z,14.71
2023-09-18T23:00:41.384Z,14.69
2023-09-18T23:03:11.163Z,14.65
2023-09-18T23:05:38.082Z,14.63
2023-09-18T23:08:09.195Z,14.62
2023-09-18T23:10:37.810Z,14.60
2023-09-18T23:13:07.745Z,14.58
2023-09-18T23:15:38.373Z,14.56
2023-09-18T23:18:08.579Z,14.54
2023-09-18T23:20:36.545Z,14.53
2023-09-18T23:23:03.840Z,14.52
2023-09-18T23:25:34.616Z,14.51
2023-09-18T23:28:01.576Z,14.51
2023-09-18T23:30:30.939Z,14.50
2023-09-18T23:33:03.902Z,14.50
2023-09-18T23:35:35.709Z,14.49
2023-09-18T23:38:04.730Z,14.50
2023-09-18T23:40:36.425Z,14.55
2023-09-18T23:43:06.413Z,14.55
2023-09-18T23:45:42.579Z,14.55
2023-09-18T23:48:19.554Z,14.54
2023-09-18T23:50:50.892Z,14.52
2023-09-18T23:53:21.835Z,14.53
2023-09-18T23:55:50.758Z,14.53
2023-09-18T23:58:18.207Z,14.54
